createdAt,value
2022-12-19T00:00:48.585Z,96.89
2022-12-19T00:01:48.675Z,96.99
2022-12-19T00:02:48.633Z,97.16
2022-12-19T00:03:48.597Z,97.41
2022-12-19T00:04:48.546Z,96.42
2022-12-19T00:05:48.522Z,96.78
2022-12-19T00:06:48.516Z,96.84
2022-12-19T00:07:48.643Z,96.53
2022-12-19T00:08:48.520Z,96.63
2022-12-19T00:09:48.498Z,96.53
2022-12-19T00:10:48.479Z,96.42
2022-12-19T00:11:48.535Z,96.42
2022-12-19T00:12:48.455Z,96.42
2022-12-19T00:13:48.433Z,96.00
2022-12-19T00:14:48.441Z,96.31
2022-12-19T00:15:48.562Z,96.11
2022-12-19T00:16:48.411Z,96.53
2022-12-19T00:17:48.458Z,96.42
2022-12-19T00:18:48.412Z,96.42
2022-12-19T00:19:48.385Z,96.42
2022-12-19T00:20:48.386Z,96.42
2022-12-19T00:21:48.364Z,96.47
2022-12-19T00:22:48.363Z,96.42
2022-12-19T00:23:48.446Z,96.42
2022-12-19T00:24:48.320Z,96.53
2022-12-19T00:25:48.331Z,96.42
2022-12-19T00:26:48.325Z,96.63
2022-12-19T00:27:48.296Z,96.53
2022-12-19T00:28:48.326Z,96.53
2022-12-19T00:29:48.278Z,96.84
2022-12-19T00:30:48.285Z,96.73
2022-12-19T00:31:48.342Z,96.53
2022-12-19T00:32:48.288Z,96.31
2022-12-19T00:33:48.247Z,96.11
2022-12-19T00:34:48.250Z,96.53
2022-12-19T00:35:48.227Z,95.89
2022-12-19T00:36:48.251Z,96.00
2022-12-19T00:37:49.691Z,96.21
2022-12-19T00:38:48.219Z,96.00
2022-12-19T00:39:48.293Z,96.00
2022-12-19T00:40:48.165Z,96.17
2022-12-19T00:41:48.207Z,96.31
2022-12-19T00:42:53.425Z,96.31
2022-12-19T00:43:49.127Z,96.11
2022-12-19T00:44:48.114Z,95.68
2022-12-19T00:45:48.192Z,95.79
2022-12-19T00:46:52.313Z,96.11
2022-12-19T00:47:48.103Z,96.06
2022-12-19T00:48:48.124Z,95.89
2022-12-19T00:49:48.088Z,95.85
2022-12-19T00:50:48.076Z,96.37
2022-12-19T00:51:48.078Z,95.85
2022-12-19T00:52:48.055Z,95.89
2022-12-19T00:53:48.424Z,96.11
2022-12-19T00:54:48.102Z,96.06
2022-12-19T00:55:48.132Z,96.17
2022-12-19T00:56:48.002Z,95.85
2022-12-19T00:57:48.015Z,95.64
2022-12-19T00:58:48.003Z,96.06
2022-12-19T00:59:47.974Z,96.17
2022-12-19T01:00:48.034Z,95.64
2022-12-19T01:01:48.127Z,95.43
2022-12-19T01:02:48.132Z,95.75
2022-12-19T01:04:11.262Z,95.64
2022-12-19T01:04:48.938Z,95.32
2022-12-19T01:05:47.902Z,95.64
2022-12-19T01:06:47.891Z,95.43
2022-12-19T01:07:47.887Z,95.32
2022-12-19T01:08:47.877Z,95.75
2022-12-19T01:09:47.858Z,95.22
2022-12-19T01:10:47.859Z,95.22
2022-12-19T01:11:47.953Z,95.11
2022-12-19T01:12:47.832Z,95.32
2022-12-19T01:13:47.847Z,95.22
2022-12-19T01:14:47.806Z,95.22
2022-12-19T01:15:47.807Z,95.53
2022-12-19T01:16:47.980Z,95.75
2022-12-19T01:17:47.818Z,95.22
2022-12-19T01:18:47.777Z,95.64
2022-12-19T01:19:47.806Z,95.32
2022-12-19T01:20:47.763Z,94.80
2022-12-19T01:21:47.740Z,95.22
2022-12-19T01:22:47.725Z,95.32
2022-12-19T01:23:47.722Z,95.11
2022-12-19T01:24:47.707Z,95.18
2022-12-19T01:25:47.756Z,95.01
2022-12-19T01:26:47.689Z,95.22
2022-12-19T01:27:47.798Z,95.11
2022-12-19T01:28:47.675Z,94.90
2022-12-19T01:29:52.782Z,95.01
2022-12-19T01:30:48.710Z,94.96
2022-12-19T01:31:47.731Z,95.53
2022-12-19T01:32:47.634Z,95.01
2022-12-19T01:33:47.670Z,95.43
2022-12-19T01:34:47.607Z,94.90
2022-12-19T01:35:47.597Z,95.22
2022-12-19T01:36:47.587Z,95.18
2022-12-19T01:37:47.596Z,94.90
2022-12-19T01:38:47.600Z,95.22
2022-12-19T01:39:47.566Z,95.75
2022-12-19T01:40:47.555Z,95.32
2022-12-19T01:41:47.539Z,95.11
2022-12-19T01:42:47.543Z,95.11
2022-12-19T01:43:47.642Z,95.22
2022-12-19T01:44:47.507Z,95.43
2022-12-19T01:45:47.620Z,95.11
2022-12-19T01:46:47.516Z,95.32
2022-12-19T01:47:47.511Z,95.11
2022-12-19T01:48:47.474Z,95.43
2022-12-19T01:49:47.468Z,95.32
2022-12-19T01:50:53.583Z,95.43
2022-12-19T01:51:48.462Z,95.43
2022-12-19T01:52:47.419Z,95.22
2022-12-19T01:53:48.600Z,95.43
2022-12-19T01:54:47.418Z,95.64
2022-12-19T01:55:47.407Z,95.64
2022-12-19T01:56:47.371Z,95.39
2022-12-19T01:57:47.362Z,95.32
2022-12-19T01:58:47.329Z,95.11
2022-12-19T01:59:47.447Z,95.11
2022-12-19T02:00:47.350Z,95.11
2022-12-19T02:01:51.611Z,95.22
2022-12-19T02:02:47.414Z,95.64
2022-12-19T02:03:47.284Z,95.64
2022-12-19T02:04:47.273Z,95.07
2022-12-19T02:05:47.252Z,95.32
2022-12-19T02:06:47.267Z,95.32
2022-12-19T02:07:47.246Z,95.32
2022-12-19T02:08:47.242Z,95.64
2022-12-19T02:09:47.213Z,95.32
2022-12-19T02:10:47.208Z,95.53
2022-12-19T02:11:47.199Z,95.43
2022-12-19T02:12:47.204Z,95.11
2022-12-19T02:13:47.478Z,95.32
2022-12-19T02:14:47.187Z,95.22
2022-12-19T02:15:47.248Z,95.43
2022-12-19T02:16:47.234Z,95.32
2022-12-19T02:17:48.733Z,95.32
2022-12-19T02:18:48.162Z,95.32
2022-12-19T02:19:47.809Z,95.43
2022-12-19T02:20:47.113Z,95.11
2022-12-19T02:21:47.094Z,95.43
2022-12-19T02:22:47.089Z,95.32
2022-12-19T02:23:47.291Z,95.07
2022-12-19T02:24:47.086Z,95.22
2022-12-19T02:25:47.085Z,95.07
2022-12-19T02:26:47.053Z,95.22
2022-12-19T02:27:47.041Z,95.22
2022-12-19T02:28:47.123Z,95.22
2022-12-19T02:29:47.040Z,95.22
2022-12-19T02:30:47.013Z,94.90
2022-12-19T02:31:47.194Z,95.18
2022-12-19T02:32:47.010Z,95.22
2022-12-19T02:33:46.988Z,95.43
2022-12-19T02:34:46.988Z,94.96
2022-12-19T02:35:46.963Z,95.39
2022-12-19T02:36:46.957Z,94.86
2022-12-19T02:37:46.948Z,95.70
2022-12-19T02:38:47.086Z,95.18
2022-12-19T02:39:46.933Z,95.07
2022-12-19T02:40:50.039Z,95.07
2022-12-19T02:41:48.008Z,94.96
2022-12-19T02:42:46.896Z,95.07
2022-12-19T02:43:47.653Z,95.39
2022-12-19T02:44:46.890Z,95.49
2022-12-19T02:45:46.918Z,95.49
2022-12-19T02:46:46.918Z,95.07
2022-12-19T02:47:46.959Z,95.18
2022-12-19T02:48:46.865Z,95.07
2022-12-19T02:49:47.007Z,94.86
2022-12-19T02:50:46.903Z,94.96
2022-12-19T02:51:46.837Z,95.39
2022-12-19T02:52:46.827Z,94.96
2022-12-19T02:53:46.786Z,95.49
2022-12-19T02:54:46.775Z,94.96
2022-12-19T02:55:46.795Z,94.82
2022-12-19T02:56:46.779Z,95.03
2022-12-19T02:57:46.748Z,95.45
2022-12-19T02:58:46.735Z,94.60
2022-12-19T02:59:46.770Z,94.60
2022-12-19T03:00:46.754Z,94.71
2022-12-19T03:01:46.938Z,94.71
2022-12-19T03:02:51.379Z,94.82
2022-12-19T03:03:47.875Z,95.45
2022-12-19T03:04:46.836Z,95.03
2022-12-19T03:05:46.758Z,94.71
2022-12-19T03:06:46.675Z,95.24
2022-12-19T03:07:46.659Z,95.03
2022-12-19T03:08:46.658Z,94.82
2022-12-19T03:09:46.634Z,95.13
2022-12-19T03:10:46.631Z,95.34
2022-12-19T03:11:46.625Z,95.03
2022-12-19T03:12:46.607Z,95.34
2022-12-19T03:13:46.597Z,94.82
2022-12-19T03:14:46.595Z,95.03
2022-12-19T03:15:46.626Z,95.34
2022-12-19T03:16:46.648Z,94.78
2022-12-19T03:17:46.702Z,94.67
2022-12-19T03:18:46.546Z,94.71
2022-12-19T03:19:46.664Z,94.92
2022-12-19T03:20:46.682Z,94.88
2022-12-19T03:21:46.526Z,94.92
2022-12-19T03:22:46.522Z,94.71
2022-12-19T03:23:46.516Z,94.82
2022-12-19T03:24:47.349Z,95.24
2022-12-19T03:25:46.471Z,94.82
2022-12-19T03:26:46.487Z,95.13
2022-12-19T03:27:46.459Z,94.92
2022-12-19T03:28:46.454Z,94.92
2022-12-19T03:29:46.467Z,94.92
2022-12-19T03:30:46.466Z,95.03
2022-12-19T03:31:46.424Z,95.45
2022-12-19T03:32:46.419Z,95.45
2022-12-19T03:33:46.394Z,95.34
2022-12-19T03:34:46.392Z,94.71
2022-12-19T03:35:47.467Z,95.13
2022-12-19T03:36:46.381Z,94.92
2022-12-19T03:37:46.372Z,94.92
2022-12-19T03:38:46.429Z,94.92
2022-12-19T03:39:46.340Z,94.92
2022-12-19T03:40:46.358Z,94.82
2022-12-19T03:41:46.397Z,95.03
2022-12-19T03:42:46.314Z,94.92
2022-12-19T03:43:46.298Z,95.03
2022-12-19T03:44:46.283Z,94.82
2022-12-19T03:45:46.335Z,94.96
2022-12-19T03:46:46.275Z,95.28
2022-12-19T03:47:46.261Z,95.24
2022-12-19T03:48:46.262Z,95.24
2022-12-19T03:49:46.236Z,95.13
2022-12-19T03:50:46.310Z,94.92
2022-12-19T03:51:46.349Z,95.13
2022-12-19T03:52:46.281Z,95.13
2022-12-19T03:53:46.217Z,95.45
2022-12-19T03:54:46.199Z,94.96
2022-12-19T03:55:46.193Z,95.66
2022-12-19T03:56:46.169Z,95.45
2022-12-19T03:57:46.178Z,94.71
2022-12-19T03:58:46.195Z,95.03
2022-12-19T03:59:46.158Z,95.13
2022-12-19T04:00:46.124Z,94.86
2022-12-19T04:01:46.211Z,94.92
2022-12-19T04:02:46.118Z,94.96
2022-12-19T04:03:46.156Z,95.28
2022-12-19T04:04:46.160Z,95.18
2022-12-19T04:05:46.075Z,94.82
2022-12-19T04:06:46.068Z,95.03
2022-12-19T04:07:46.506Z,95.39
2022-12-19T04:08:46.049Z,94.96
2022-12-19T04:09:46.048Z,95.18
2022-12-19T04:10:46.233Z,95.18
2022-12-19T04:11:46.010Z,94.92
2022-12-19T04:12:46.004Z,94.96
2022-12-19T04:13:45.994Z,95.07
2022-12-19T04:14:45.994Z,94.92
2022-12-19T04:15:46.008Z,95.03
2022-12-19T04:16:46.007Z,95.13
2022-12-19T04:17:45.958Z,95.18
2022-12-19T04:18:45.981Z,95.13
2022-12-19T04:19:45.947Z,95.18
2022-12-19T04:20:45.924Z,95.03
2022-12-19T04:21:45.916Z,95.03
2022-12-19T04:22:46.031Z,94.92
2022-12-19T04:23:46.016Z,94.86
2022-12-19T04:24:45.892Z,95.24
2022-12-19T04:25:45.892Z,95.34
2022-12-19T04:26:45.873Z,95.34
2022-12-19T04:27:45.876Z,95.45
2022-12-19T04:28:45.841Z,94.92
2022-12-19T04:29:46.044Z,94.92
2022-12-19T04:30:45.913Z,94.92
2022-12-19T04:31:45.815Z,94.96
2022-12-19T04:32:45.821Z,95.45
2022-12-19T04:33:45.789Z,95.45
2022-12-19T04:34:45.785Z,95.45
2022-12-19T04:35:45.891Z,94.92
2022-12-19T04:36:45.769Z,95.45
2022-12-19T04:37:45.788Z,95.13
2022-12-19T04:38:45.763Z,94.92
2022-12-19T04:39:45.843Z,95.34
2022-12-19T04:40:45.726Z,95.34
2022-12-19T04:41:45.781Z,95.24
2022-12-19T04:42:45.703Z,95.34
2022-12-19T04:43:45.701Z,95.34
2022-12-19T04:44:45.675Z,95.13
2022-12-19T04:45:45.671Z,95.20
2022-12-19T04:46:45.709Z,95.40
2022-12-19T04:47:45.654Z,95.24
2022-12-19T04:48:45.657Z,94.88
2022-12-19T04:49:45.630Z,95.09
2022-12-19T04:50:45.624Z,94.98
2022-12-19T04:51:45.612Z,94.78
2022-12-19T04:52:45.630Z,94.98
2022-12-19T04:53:45.607Z,94.98
2022-12-19T04:54:45.726Z,94.88
2022-12-19T04:55:45.720Z,95.40
2022-12-19T04:56:45.556Z,95.20
2022-12-19T04:57:45.671Z,95.20
2022-12-19T04:58:45.553Z,94.98
2022-12-19T04:59:45.547Z,94.88
2022-12-19T05:00:45.521Z,94.88
2022-12-19T05:01:45.680Z,94.78
2022-12-19T05:02:45.696Z,94.67
2022-12-19T05:03:49.993Z,94.94
2022-12-19T05:04:46.509Z,95.09
2022-12-19T05:05:45.465Z,94.88
2022-12-19T05:06:45.511Z,95.20
2022-12-19T05:07:45.446Z,95.40
2022-12-19T05:08:45.436Z,95.30
2022-12-19T05:09:45.428Z,95.20
2022-12-19T05:10:45.431Z,94.88
2022-12-19T05:11:45.534Z,94.84
2022-12-19T05:12:45.413Z,94.73
2022-12-19T05:13:45.380Z,94.84
2022-12-19T05:14:45.378Z,95.26
2022-12-19T05:15:45.414Z,94.52
2022-12-19T05:16:45.360Z,94.62
2022-12-19T05:17:45.355Z,94.73
2022-12-19T05:18:45.354Z,94.69
2022-12-19T05:19:45.329Z,94.73
2022-12-19T05:20:45.304Z,94.48
2022-12-19T05:21:45.313Z,94.37
2022-12-19T05:22:45.290Z,94.27
2022-12-19T05:23:45.287Z,94.37
2022-12-19T05:24:45.264Z,93.89
2022-12-19T05:25:45.267Z,94.06
2022-12-19T05:26:45.247Z,94.48
2022-12-19T05:27:45.366Z,94.37
2022-12-19T05:28:45.610Z,94.37
2022-12-19T05:29:45.219Z,93.32
2022-12-19T05:30:50.580Z,93.63
2022-12-19T05:31:46.266Z,93.32
2022-12-19T05:32:45.376Z,93.22
2022-12-19T05:33:45.263Z,92.96
2022-12-19T05:34:45.165Z,93.11
2022-12-19T05:35:45.152Z,92.96
2022-12-19T05:36:45.349Z,93.28
2022-12-19T05:37:45.125Z,92.96
2022-12-19T05:38:45.116Z,93.07
2022-12-19T05:39:45.215Z,93.07
2022-12-19T05:40:45.115Z,92.96
2022-12-19T05:41:48.842Z,92.86
2022-12-19T05:42:45.089Z,92.76
2022-12-19T05:43:45.189Z,92.44
2022-12-19T05:44:45.072Z,92.54
2022-12-19T05:45:45.069Z,92.50
2022-12-19T05:46:45.146Z,92.71
2022-12-19T05:47:45.030Z,92.50
2022-12-19T05:48:45.010Z,92.71
2022-12-19T05:49:45.014Z,92.61
2022-12-19T05:50:44.998Z,91.97
2022-12-19T05:51:44.990Z,91.87
2022-12-19T05:52:44.988Z,91.97
2022-12-19T05:53:44.994Z,92.61
2022-12-19T05:54:44.993Z,92.19
2022-12-19T05:55:44.944Z,91.56
2022-12-19T05:56:44.947Z,91.41
2022-12-19T05:57:44.969Z,91.35
2022-12-19T05:58:44.930Z,91.62
2022-12-19T05:59:45.031Z,91.41
2022-12-19T06:00:44.906Z,91.62
2022-12-19T06:01:45.052Z,91.52
2022-12-19T06:02:44.953Z,92.35
2022-12-19T06:03:44.888Z,92.14
2022-12-19T06:04:44.866Z,92.14
2022-12-19T06:05:44.841Z,91.72
2022-12-19T06:06:44.840Z,91.52
2022-12-19T06:07:44.831Z,90.89
2022-12-19T06:08:44.829Z,91.20
2022-12-19T06:09:44.816Z,91.41
2022-12-19T06:10:44.813Z,90.99
2022-12-19T06:11:44.783Z,90.47
2022-12-19T06:12:44.796Z,90.64
2022-12-19T06:13:44.784Z,90.22
2022-12-19T06:14:44.746Z,90.11
2022-12-19T06:15:44.875Z,89.90
2022-12-19T06:16:44.814Z,90.67
2022-12-19T06:17:44.718Z,90.99
2022-12-19T06:18:45.552Z,90.00
2022-12-19T06:19:44.714Z,90.00
2022-12-19T06:20:44.705Z,90.78
2022-12-19T06:21:48.271Z,90.89
2022-12-19T06:22:44.659Z,90.64
2022-12-19T06:23:44.678Z,90.74
2022-12-19T06:24:44.637Z,90.47
2022-12-19T06:25:44.643Z,89.94
2022-12-19T06:26:44.700Z,89.94
2022-12-19T06:27:44.619Z,90.78
2022-12-19T06:28:44.601Z,90.25
2022-12-19T06:29:44.606Z,90.64
2022-12-19T06:30:44.586Z,89.90
2022-12-19T06:31:44.792Z,90.00
2022-12-19T06:32:44.575Z,89.65
2022-12-19T06:33:44.607Z,89.79
2022-12-19T06:35:03.670Z,89.44
2022-12-19T06:35:45.524Z,89.54
2022-12-19T06:36:44.579Z,89.37
2022-12-19T06:37:44.555Z,89.37
2022-12-19T06:38:44.531Z,89.54
2022-12-19T06:39:44.547Z,89.54
2022-12-19T06:40:44.556Z,90.17
2022-12-19T06:41:44.541Z,89.44
2022-12-19T06:42:44.506Z,89.44
2022-12-19T06:43:46.923Z,89.75
2022-12-19T06:44:44.444Z,90.17
2022-12-19T06:45:44.484Z,88.81
2022-12-19T06:46:44.421Z,89.02
2022-12-19T06:47:44.579Z,88.71
2022-12-19T06:48:44.415Z,89.02
2022-12-19T06:49:44.396Z,89.02
2022-12-19T06:50:44.363Z,89.34
2022-12-19T06:51:44.382Z,88.60
2022-12-19T06:52:44.350Z,89.23
2022-12-19T06:53:44.352Z,88.60
2022-12-19T06:54:44.327Z,88.39
2022-12-19T06:55:44.318Z,87.76
2022-12-19T06:56:44.319Z,88.04
2022-12-19T06:57:44.346Z,88.87
2022-12-19T06:58:44.310Z,88.81
2022-12-19T06:59:44.296Z,88.67
2022-12-19T07:00:44.328Z,88.49
2022-12-19T07:01:44.427Z,88.49
2022-12-19T07:02:44.382Z,88.77
2022-12-19T07:03:44.360Z,88.35
2022-12-19T07:04:44.236Z,88.18
2022-12-19T07:05:44.215Z,87.41
2022-12-19T07:06:48.891Z,87.55
2022-12-19T07:07:45.202Z,87.87
2022-12-19T07:08:44.202Z,88.39
2022-12-19T07:09:44.175Z,88.71
2022-12-19T07:10:44.245Z,88.07
2022-12-19T07:11:44.161Z,88.29
2022-12-19T07:12:44.148Z,87.62
2022-12-19T07:13:44.143Z,87.83
2022-12-19T07:14:46.767Z,88.14
2022-12-19T07:15:45.119Z,87.51
2022-12-19T07:16:44.136Z,87.51
2022-12-19T07:17:44.109Z,87.62
2022-12-19T07:18:44.123Z,87.72
2022-12-19T07:19:44.228Z,87.45
2022-12-19T07:20:45.413Z,87.66
2022-12-19T07:21:44.050Z,87.93
2022-12-19T07:22:44.027Z,88.04
2022-12-19T07:23:44.024Z,87.72
2022-12-19T07:24:44.018Z,87.76
2022-12-19T07:25:44.016Z,87.51
2022-12-19T07:26:43.988Z,87.93
2022-12-19T07:27:43.979Z,87.51
2022-12-19T07:28:43.977Z,87.83
2022-12-19T07:29:43.970Z,87.20
2022-12-19T07:30:43.960Z,87.30
2022-12-19T07:31:44.046Z,87.72
2022-12-19T07:32:43.986Z,86.88
2022-12-19T07:33:43.926Z,86.99
2022-12-19T07:34:43.916Z,87.62
2022-12-19T07:35:44.020Z,87.62
2022-12-19T07:36:43.905Z,87.20
2022-12-19T07:37:43.939Z,87.09
2022-12-19T07:38:43.882Z,86.78
2022-12-19T07:39:43.855Z,87.09
2022-12-19T07:40:43.890Z,87.41
2022-12-19T07:41:43.854Z,86.95
2022-12-19T07:42:43.837Z,87.05
2022-12-19T07:43:43.827Z,87.16
2022-12-19T07:44:43.808Z,86.85
2022-12-19T07:45:43.918Z,86.63
2022-12-19T07:46:43.812Z,86.22
2022-12-19T07:47:43.780Z,86.22
2022-12-19T07:48:44.097Z,86.22
2022-12-19T07:49:43.788Z,86.11
2022-12-19T07:50:43.747Z,85.97
2022-12-19T07:51:43.847Z,85.65
2022-12-19T07:52:43.729Z,85.75
2022-12-19T07:53:43.720Z,85.24
2022-12-19T07:54:43.712Z,85.55
2022-12-19T07:55:43.701Z,85.34
2022-12-19T07:56:43.692Z,85.75
2022-12-19T07:57:43.690Z,85.41
2022-12-19T07:58:43.661Z,85.75
2022-12-19T07:59:43.655Z,85.02
2022-12-19T08:00:43.691Z,85.34
2022-12-19T08:01:43.729Z,85.55
2022-12-19T08:02:43.768Z,85.13
2022-12-19T08:03:43.609Z,85.55
2022-12-19T08:04:43.616Z,84.92
2022-12-19T08:05:43.591Z,84.39
2022-12-19T08:06:43.590Z,84.39
2022-12-19T08:07:43.707Z,84.50
2022-12-19T08:08:43.574Z,84.78
2022-12-19T08:09:43.543Z,85.30
2022-12-19T08:10:43.535Z,85.30
2022-12-19T08:11:43.531Z,84.25
2022-12-19T08:12:43.527Z,84.05
2022-12-19T08:13:46.701Z,84.15
2022-12-19T08:14:43.516Z,84.15
2022-12-19T08:15:43.488Z,83.94
2022-12-19T08:17:11.458Z,84.05
2022-12-19T08:17:44.584Z,84.36
2022-12-19T08:18:43.466Z,84.00
2022-12-19T08:19:43.453Z,84.25
2022-12-19T08:20:43.458Z,83.90
2022-12-19T08:21:43.430Z,83.94
2022-12-19T08:22:43.422Z,84.11
2022-12-19T08:23:43.521Z,83.90
2022-12-19T08:24:43.406Z,83.80
2022-12-19T08:25:43.398Z,83.80
2022-12-19T08:26:47.527Z,83.94
2022-12-19T08:27:43.378Z,83.80
2022-12-19T08:28:43.373Z,83.69
2022-12-19T08:29:43.338Z,83.80
2022-12-19T08:30:43.365Z,83.69
2022-12-19T08:31:43.343Z,83.80
2022-12-19T08:32:43.320Z,83.90
2022-12-19T08:33:43.297Z,83.76
2022-12-19T08:34:43.281Z,83.59
2022-12-19T08:35:43.288Z,83.48
2022-12-19T08:36:43.280Z,83.59
2022-12-19T08:37:43.258Z,83.38
2022-12-19T08:38:43.274Z,83.69
2022-12-19T08:39:43.353Z,83.55
2022-12-19T08:40:47.333Z,83.27
2022-12-19T08:41:43.230Z,83.23
2022-12-19T08:42:43.209Z,83.34
2022-12-19T08:43:43.196Z,83.44
2022-12-19T08:44:43.184Z,83.55
2022-12-19T08:45:43.243Z,82.57
2022-12-19T08:46:49.492Z,83.03
2022-12-19T08:47:44.181Z,83.30
2022-12-19T08:48:43.143Z,83.62
2022-12-19T08:49:43.153Z,82.89
2022-12-19T08:50:43.145Z,83.62
2022-12-19T08:51:43.120Z,82.15
2022-12-19T08:52:43.100Z,82.26
2022-12-19T08:53:43.119Z,82.05
2022-12-19T08:54:43.099Z,82.26
2022-12-19T08:55:43.184Z,82.57
2022-12-19T08:56:46.133Z,82.46
2022-12-19T08:57:43.065Z,83.30
2022-12-19T08:58:43.057Z,83.58
2022-12-19T08:59:43.023Z,82.67
2022-12-19T09:00:45.532Z,82.22
2022-12-19T09:01:44.095Z,81.70
2022-12-19T09:02:43.218Z,81.90
2022-12-19T09:05:26.048Z,81.70
2022-12-19T09:05:54.533Z,81.90
2022-12-19T09:06:05.258Z,82.05
2022-12-19T09:06:44.050Z,82.43
2022-12-19T09:07:42.950Z,82.64
2022-12-19T09:08:42.939Z,82.12
2022-12-19T09:09:42.941Z,82.12
2022-12-19T09:10:42.917Z,81.87
2022-12-19T09:11:47.273Z,82.12
2022-12-19T09:12:43.899Z,81.70
2022-12-19T09:13:42.892Z,81.76
2022-12-19T09:14:42.880Z,81.87
2022-12-19T09:15:42.868Z,81.66
2022-12-19T09:16:42.916Z,82.07
2022-12-19T09:17:42.848Z,81.76
2022-12-19T09:18:48.194Z,81.87
2022-12-19T09:19:47.099Z,81.87
2022-12-19T09:20:42.849Z,81.56
2022-12-19T09:21:42.837Z,81.13
2022-12-19T09:22:42.797Z,81.76
2022-12-19T09:23:42.797Z,81.66
2022-12-19T09:24:42.762Z,81.76
2022-12-19T09:25:42.780Z,81.97
2022-12-19T09:26:42.753Z,81.97
2022-12-19T09:28:17.913Z,82.14
2022-12-19T09:28:43.724Z,81.73
2022-12-19T09:29:42.724Z,81.31
2022-12-19T09:30:42.756Z,81.41
2022-12-19T09:31:42.691Z,81.21
2022-12-19T09:32:42.691Z,81.31
2022-12-19T09:33:43.806Z,81.10
2022-12-19T09:34:42.673Z,81.10
2022-12-19T09:35:42.669Z,80.37
2022-12-19T09:36:42.647Z,81.27
2022-12-19T09:37:42.634Z,80.85
2022-12-19T09:38:42.617Z,81.06
2022-12-19T09:39:42.668Z,81.27
2022-12-19T09:40:42.602Z,81.13
2022-12-19T09:41:42.653Z,81.48
2022-12-19T09:42:42.577Z,81.27
2022-12-19T09:43:42.704Z,81.45
2022-12-19T09:44:42.553Z,81.06
2022-12-19T09:45:42.591Z,80.33
2022-12-19T09:46:42.568Z,80.51
2022-12-19T09:47:42.579Z,80.61
2022-12-19T09:48:42.518Z,80.92
2022-12-19T09:49:42.522Z,80.71
2022-12-19T09:50:42.505Z,80.40
2022-12-19T09:51:42.477Z,80.92
2022-12-19T09:52:42.489Z,80.61
2022-12-19T09:53:42.473Z,80.19
2022-12-19T09:54:42.474Z,80.61
2022-12-19T09:55:42.495Z,80.47
2022-12-19T09:56:45.563Z,79.74
2022-12-19T09:57:42.453Z,80.57
2022-12-19T09:58:42.435Z,79.53
2022-12-19T09:59:47.970Z,80.05
2022-12-19T10:00:43.401Z,80.26
2022-12-19T10:01:42.506Z,79.94
2022-12-19T10:02:42.610Z,79.43
2022-12-19T10:03:42.440Z,80.33
2022-12-19T10:04:42.351Z,80.02
2022-12-19T10:06:52.574Z,80.22
2022-12-19T10:07:11.013Z,79.60
2022-12-19T10:08:07.220Z,79.39
2022-12-19T10:09:03.069Z,78.77
2022-12-19T10:11:59.387Z,79.28
2022-12-19T10:12:36.560Z,79.49
2022-12-19T10:12:45.697Z,79.39
2022-12-19T10:12:51.964Z,79.08
2022-12-19T10:13:43.275Z,79.08
2022-12-19T10:14:42.248Z,79.28
2022-12-19T10:15:42.383Z,79.25
2022-12-19T10:16:52.007Z,78.87
2022-12-19T10:17:43.217Z,79.56
2022-12-19T10:18:42.197Z,79.70
2022-12-19T10:19:42.207Z,79.18
2022-12-19T10:20:42.213Z,80.33
2022-12-19T10:22:43.162Z,79.08
2022-12-19T10:23:42.158Z,79.08
2022-12-19T10:24:42.144Z,79.08
2022-12-19T10:25:42.175Z,78.97
2022-12-19T10:26:42.118Z,79.25
2022-12-19T10:27:44.271Z,79.25
2022-12-19T10:28:43.115Z,79.56
2022-12-19T10:29:42.100Z,79.25
2022-12-19T10:30:42.384Z,79.25
2022-12-19T10:31:42.212Z,79.35
2022-12-19T10:32:42.053Z,79.77
2022-12-19T10:33:42.057Z,79.87
2022-12-19T10:34:42.117Z,80.40
2022-12-19T10:35:42.035Z,80.40
2022-12-19T10:37:12.878Z,79.94
2022-12-19T10:37:49.135Z,80.19
2022-12-19T10:38:47.563Z,80.19
2022-12-19T10:39:43.040Z,80.46
2022-12-19T10:40:41.977Z,80.57
2022-12-19T10:41:44.306Z,80.57
2022-12-19T10:42:41.955Z,80.15
2022-12-19T10:43:44.402Z,80.26
2022-12-19T10:44:41.967Z,80.15
2022-12-19T10:45:41.925Z,80.26
2022-12-19T10:46:42.021Z,80.26
2022-12-19T10:47:42.057Z,80.50
2022-12-19T10:48:41.920Z,81.09
2022-12-19T10:49:41.900Z,80.98
2022-12-19T10:50:41.919Z,80.67
2022-12-19T10:51:41.851Z,80.98
2022-12-19T10:52:41.875Z,80.98
2022-12-19T10:53:41.843Z,81.50
2022-12-19T10:54:41.884Z,81.81
2022-12-19T10:55:41.872Z,81.50
2022-12-19T10:56:41.824Z,81.71
2022-12-19T10:57:41.799Z,81.92
2022-12-19T10:58:41.808Z,81.67
2022-12-19T10:59:41.834Z,82.30
2022-12-19T11:00:41.775Z,82.92
2022-12-19T11:01:41.889Z,82.92
2022-12-19T11:02:41.926Z,83.03
2022-12-19T11:03:41.967Z,83.13
2022-12-19T11:04:41.757Z,82.82
2022-12-19T11:05:41.724Z,83.23
2022-12-19T11:06:41.695Z,83.65
2022-12-19T11:07:41.691Z,83.54
2022-12-19T11:08:41.695Z,84.27
2022-12-19T11:09:43.310Z,84.69
2022-12-19T11:11:22.928Z,85.14
2022-12-19T11:15:37.216Z,85.42
2022-12-19T11:16:33.697Z,84.83
2022-12-19T11:18:55.580Z,84.83
2022-12-19T11:20:03.111Z,85.67
2022-12-19T11:22:06.960Z,85.77
2022-12-19T11:22:43.226Z,86.19
2022-12-19T11:28:30.110Z,86.08
2022-12-19T11:29:16.046Z,86.91
2022-12-19T11:29:16.786Z,86.29
2022-12-19T11:29:30.747Z,88.79
2022-12-19T11:29:30.747Z,88.37
2022-12-19T11:29:32.463Z,88.42
2022-12-19T11:29:44.433Z,87.23
2022-12-19T11:29:46.776Z,88.06
2022-12-19T11:29:55.166Z,87.12
2022-12-19T11:29:55.843Z,86.60
2022-12-19T11:30:44.125Z,87.75
2022-12-19T11:30:48.178Z,88.42
2022-12-19T11:32:44.998Z,89.31
2022-12-19T11:33:41.488Z,90.25
2022-12-19T11:34:41.433Z,90.14
2022-12-19T11:35:41.519Z,90.14
2022-12-19T11:36:41.388Z,90.35
2022-12-19T11:37:41.369Z,90.14
2022-12-19T11:38:41.364Z,90.45
2022-12-19T11:39:41.375Z,90.35
2022-12-19T11:40:48.439Z,91.02
2022-12-19T11:41:42.341Z,91.43
2022-12-19T11:42:41.312Z,91.43
2022-12-19T11:43:44.523Z,91.64
2022-12-19T11:44:41.306Z,91.85
2022-12-19T11:45:41.282Z,91.81
2022-12-19T11:46:41.277Z,91.81
2022-12-19T11:47:41.279Z,92.27
2022-12-19T11:48:41.262Z,93.37
2022-12-19T11:49:41.249Z,93.48
2022-12-19T11:50:41.226Z,93.73
2022-12-19T11:51:41.342Z,93.52
2022-12-19T11:53:42.211Z,94.10
2022-12-19T11:54:41.208Z,93.99
2022-12-19T11:55:41.182Z,94.76
2022-12-19T11:56:41.179Z,95.08
2022-12-19T11:57:41.169Z,95.29
2022-12-19T11:58:41.166Z,95.60
2022-12-19T11:59:41.140Z,95.81
2022-12-19T12:00:41.135Z,96.64
2022-12-19T12:01:41.215Z,96.22
2022-12-19T12:02:41.111Z,96.53
2022-12-19T12:03:41.232Z,97.27
2022-12-19T12:04:42.151Z,97.31
2022-12-19T12:05:41.077Z,97.58
2022-12-19T12:06:45.290Z,97.37
2022-12-19T12:09:15.525Z,97.78
2022-12-19T12:10:22.723Z,98.20
2022-12-19T12:11:58.414Z,97.68
2022-12-19T12:15:51.299Z,97.89
2022-12-19T12:22:00.729Z,98.10
2022-12-19T12:23:09.481Z,98.41
2022-12-19T12:23:18.392Z,98.93
2022-12-19T12:24:37.851Z,99.24
2022-12-19T12:25:50.284Z,98.31
2022-12-19T12:29:36.630Z,98.52
2022-12-19T12:31:04.009Z,98.72
2022-12-19T12:31:04.928Z,98.72
2022-12-19T12:31:06.483Z,99.04
2022-12-19T12:31:08.293Z,99.14
2022-12-19T12:31:32.067Z,99.98
2022-12-19T12:31:32.197Z,98.93
2022-12-19T12:31:38.888Z,98.93
2022-12-19T12:31:40.237Z,99.35
2022-12-19T12:31:50.065Z,99.98
2022-12-19T12:31:52.578Z,99.87
2022-12-19T12:31:56.211Z,99.24
2022-12-19T12:31:58.266Z,99.66
2022-12-19T12:32:00.734Z,99.45
2022-12-19T12:32:04.823Z,99.30
2022-12-19T12:35:28.855Z,99.99
2022-12-19T12:35:46.910Z,99.99
2022-12-19T12:35:52.123Z,99.98
2022-12-19T12:38:13.603Z,99.99
2022-12-19T12:38:42.012Z,99.99
2022-12-19T12:39:40.733Z,99.99
2022-12-19T12:40:40.709Z,99.99
2022-12-19T12:41:40.697Z,99.99
2022-12-19T12:42:40.681Z,99.99
2022-12-19T12:43:40.685Z,99.99
2022-12-19T12:44:45.592Z,99.99
2022-12-19T12:45:41.756Z,99.99
2022-12-19T12:46:40.653Z,99.99
2022-12-19T12:47:40.627Z,99.99
2022-12-19T12:48:40.637Z,99.99
2022-12-19T12:49:40.616Z,99.99
2022-12-19T12:50:40.599Z,99.99
2022-12-19T12:51:40.602Z,99.99
2022-12-19T12:52:40.593Z,99.99
2022-12-19T12:53:40.587Z,99.99
2022-12-19T12:54:40.574Z,99.99
2022-12-19T12:55:40.567Z,99.99
2022-12-19T12:56:40.544Z,99.99
2022-12-19T12:57:40.520Z,99.99
2022-12-19T12:58:40.527Z,99.99
2022-12-19T12:59:40.516Z,99.99
2022-12-19T13:00:40.498Z,99.99